Time;durP1;ratioP1;P1;durP2;ratioP2;P2;SDS_P1;SDS_P2;PMS_P1;PMS_P2;Temp;Humidity;BMP_temperature;BMP_pressure;BME280_temperature;BME280_humidity;BME280_pressure;Samples;Min_cycle;Max_cycle;Signal;HPM_P1;HPM_P2
2022/06/05 00:00:03;;;;;;;11.27;2.45;;;20.00;99.90;;;;;;4997372;28;20049;-67
2022/06/05 00:02:48;;;;;;;11.60;1.65;;;20.10;99.90;;;;;;4997401;28;20043;-67
2022/06/05 00:05:15;;;;;;;2.33;0.73;;;;;;;;;;4997255;28;20528;-68
2022/06/05 00:07:46;;;;;;;2.55;0.55;;;;;;;;;;4997191;28;20042;-68
2022/06/05 00:10:26;;;;;;;0.95;0.22;;;19.60;99.90;;;;;;5006670;28;20042;-67
2022/06/05 00:13:06;;;;;;;3.63;0.50;;;19.30;99.90;;;;;;4998866;28;20042;-68
2022/06/05 00:15:33;;;;;;;3.17;0.52;;;19.50;99.90;;;;;;4997133;28;20038;-68
2022/06/05 00:18:01;;;;;;;3.80;0.50;;;19.20;99.90;;;;;;4993558;28;20406;-67
2022/06/05 00:20:26;;;;;;;3.42;0.45;;;18.90;99.90;;;;;;4994508;28;20046;-67
2022/06/05 00:22:52;;;;;;;3.75;0.57;;;18.80;99.90;;;;;;4994345;28;20042;-67
2022/06/05 00:25:18;;;;;;;4.15;0.38;;;18.80;99.90;;;;;;4996449;28;20077;-68
2022/06/05 00:28:22;;;;;;;3.15;0.50;;;18.80;99.90;;;;;;4997853;28;20050;-68
2022/06/05 00:31:07;;;;;;;0.93;0.40;;;18.70;99.90;;;;;;4955705;29;20043;-67
2022/06/05 00:33:38;;;;;;;0.93;0.40;;;18.70;99.90;;;;;;4955686;29;20047;-67
2022/06/05 00:36:13;;;;;;;1.60;0.22;;;18.70;99.90;;;;;;4981735;28;20424;-68
2022/06/05 00:38:50;;;;;;;2.88;0.32;;;18.80;99.90;;;;;;4996870;28;20042;-67
2022/06/05 00:41:31;;;;;;;1.05;0.30;;;18.70;99.90;;;;;;5012471;28;20077;-68
2022/06/05 00:44:00;;;;;;;0.65;0.10;;;18.70;99.90;;;;;;4996522;28;20038;-67
2022/06/05 00:46:26;;;;;;;6.38;0.38;;;18.70;99.90;;;;;;4996678;28;20453;-68
2022/06/05 00:48:52;;;;;;;3.63;0.20;;;18.70;99.90;;;;;;4994638;28;20038;-68
2022/06/05 00:51:18;;;;;;;2.83;0.22;;;18.70;99.90;;;;;;4995898;28;20053;-67
2022/06/05 00:53:44;;;;;;;1.92;0.38;;;18.70;99.90;;;;;;4996547;28;20112;-67
2022/06/05 00:56:11;;;;;;;0.98;0.20;;;18.70;99.90;;;;;;4996398;28;20050;-67
2022/06/05 00:58:37;;;;;;;0.40;0.20;;;18.80;99.90;;;;;;4996455;28;20613;-68
2022/06/05 01:01:03;;;;;;;0.52;0.20;;;18.70;99.90;;;;;;4996336;28;20042;-67
2022/06/05 01:03:30;;;;;;;1.02;0.30;;;18.70;99.90;;;;;;4996349;28;20119;-67
2022/06/05 01:05:56;;;;;;;0.47;0.30;;;18.80;99.90;;;;;;4995140;28;20112;-68
2022/06/05 01:08:22;;;;;;;1.10;0.28;;;18.80;99.90;;;;;;4996294;28;20097;-67
2022/06/05 01:11:06;;;;;;;1.52;0.60;;;18.80;99.90;;;;;;4995888;28;20125;-68
2022/06/05 01:13:32;;;;;;;0.68;0.40;;;18.80;99.90;;;;;;4996076;28;20046;-67
2022/06/05 01:16:16;;;;;;;1.77;0.30;;;18.70;99.90;;;;;;4996073;28;20059;-68
2022/06/05 01:18:46;;;;;;;1.42;0.20;;;;;;;;;;4995904;28;20129;-67
2022/06/05 01:21:20;;;;;;;0.85;0.30;;;;;;;;;;4995970;28;20057;-67
2022/06/05 01:24:21;;;;;;;2.90;0.30;;;18.70;99.90;;;;;;4995891;28;20057;-67
2022/06/05 01:26:57;;;;;;;0.47;0.20;;;18.70;99.90;;;;;;4962965;28;20046;-67
2022/06/05 01:29:53;;;;;;;1.15;0.40;;;18.80;99.90;;;;;;4995877;28;20049;-67
2022/06/05 01:32:25;;;;;;;0.80;0.20;;;;;;;;;;4995891;28;20108;-68
2022/06/05 01:34:59;;;;;;;0.30;0.20;;;19.10;99.90;;;;;;4995696;28;20485;-68
2022/06/05 01:37:41;;;;;;;2.13;0.22;;;19.00;99.90;;;;;;4995740;28;20042;-68
2022/06/05 01:40:33;;;;;;;1.25;0.50;;;19.00;99.90;;;;;;4995694;28;20042;-68
2022/06/05 01:43:07;;;;;;;0.20;0.20;;;18.90;99.90;;;;;;4984983;28;20030;-68
2022/06/05 01:46:01;;;;;;;0.32;0.20;;;19.00;99.90;;;;;;4995684;28;20049;-68
2022/06/05 01:48:40;;;;;;;2.97;0.40;;;18.80;99.90;;;;;;4995793;28;20050;-69
2022/06/05 01:51:14;;;;;;;0.50;0.47;;;18.80;99.90;;;;;;4995313;28;20525;-68
2022/06/05 01:53:43;;;;;;;0.60;0.40;;;18.50;99.90;;;;;;4995362;28;20037;-68
2022/06/05 01:56:20;;;;;;;1.38;0.35;;;18.40;99.90;;;;;;4995484;28;20544;-67
2022/06/05 01:58:58;;;;;;;0.65;0.30;;;18.50;99.90;;;;;;4995403;28;20046;-67
2022/06/05 02:01:33;;;;;;;0.85;0.17;;;18.40;99.90;;;;;;4995477;28;20038;-67
2022/06/05 02:04:05;;;;;;;0.85;0.30;;;18.40;99.90;;;;;;4995316;28;20080;-68
2022/06/05 02:06:53;;;;;;;0.82;0.30;;;18.50;99.90;;;;;;4995163;28;20101;-67
2022/06/05 02:09:37;;;;;;;2.75;0.30;;;18.30;99.90;;;;;;4994246;28;20133;-67
2022/06/05 02:12:05;;;;;;;0.47;0.32;;;18.30;99.90;;;;;;4995003;28;20141;-67
2022/06/05 02:14:31;;;;;;;1.05;0.30;;;18.30;99.90;;;;;;4994928;28;20034;-67
2022/06/05 02:16:58;;;;;;;0.47;0.28;;;18.70;99.90;;;;;;4994892;28;20141;-68
2022/06/05 02:19:24;;;;;;;1.13;0.38;;;18.70;99.90;;;;;;4994287;28;20049;-68
2022/06/05 02:21:53;;;;;;;2.00;0.20;;;18.80;99.90;;;;;;4994835;28;20132;-67
2022/06/05 02:24:19;;;;;;;1.75;0.35;;;18.70;99.90;;;;;;4977437;28;20072;-67
2022/06/05 02:26:44;;;;;;;1.38;0.40;;;18.70;99.90;;;;;;4994541;28;20077;-67
2022/06/05 02:29:19;;;;;;;1.10;0.40;;;18.60;99.90;;;;;;4994575;28;20034;-67
2022/06/05 02:32:10;;;;;;;5.57;0.73;;;18.40;99.90;;;;;;4994331;28;20144;-67
2022/06/05 02:34:49;;;;;;;1.33;0.40;;;18.20;99.90;;;;;;4994526;28;20046;-67
2022/06/05 02:37:48;;;;;;;3.05;0.28;;;18.00;99.90;;;;;;4994679;28;20583;-67
2022/06/05 02:40:28;;;;;;;1.98;0.50;;;17.90;99.90;;;;;;4994536;28;20076;-67
2022/06/05 02:43:12;;;;;;;1.38;0.40;;;18.10;99.90;;;;;;4994728;28;20040;-67
2022/06/05 02:46:01;;;;;;;4.10;0.50;;;18.20;99.90;;;;;;4994246;28;20060;-67
2022/06/05 02:48:39;;;;;;;2.15;0.40;;;18.30;99.90;;;;;;4994190;28;20050;-67
2022/06/05 02:51:23;;;;;;;2.65;0.68;;;18.10;99.90;;;;;;4994415;28;20061;-67
2022/06/05 02:53:58;;;;;;;1.38;0.52;;;18.10;99.90;;;;;;4994377;28;20038;-67
2022/06/05 02:56:28;;;;;;;1.02;0.30;;;17.90;99.90;;;;;;4994476;28;20042;-67
2022/06/05 02:58:56;;;;;;;3.47;0.38;;;17.90;99.90;;;;;;4994177;28;20037;-67
2022/06/05 03:04:07;;;;;;;0.90;0.50;;;17.60;99.90;;;;;;4974790;28;20157;-67
2022/06/05 03:06:34;;;;;;;4.70;0.40;;;;;;;;;;4974809;28;20165;-67
2022/06/05 03:09:00;;;;;;;3.60;0.50;;;17.70;99.90;;;;;;4974615;28;20089;-67
2022/06/05 03:11:26;;;;;;;4.18;0.63;;;17.30;99.90;;;;;;4974453;28;20061;-67
2022/06/05 03:13:52;;;;;;;0.77;0.47;;;17.60;99.90;;;;;;4974529;28;20109;-67
2022/06/05 03:16:18;;;;;;;2.42;0.70;;;17.60;99.90;;;;;;4974545;28;20078;-67
2022/06/05 03:18:44;;;;;;;3.35;0.70;;;17.70;99.90;;;;;;4974588;28;20130;-67
2022/06/05 03:21:10;;;;;;;4.38;0.73;;;17.80;99.90;;;;;;4974506;28;20450;-67
2022/06/05 03:23:35;;;;;;;1.75;0.57;;;17.90;99.90;;;;;;4974506;28;20113;-67
2022/06/05 03:26:01;;;;;;;2.25;0.55;;;17.90;99.90;;;;;;4974409;28;20082;-67
2022/06/05 03:28:27;;;;;;;2.00;0.50;;;17.90;99.90;;;;;;4974347;28;20049;-68
2022/06/05 03:30:53;;;;;;;1.70;0.40;;;17.90;99.90;;;;;;4974124;28;20038;-67
2022/06/05 03:33:19;;;;;;;2.03;0.40;;;17.60;99.90;;;;;;4973944;28;20124;-67
2022/06/05 03:35:46;;;;;;;2.28;0.40;;;17.60;99.90;;;;;;4974327;28;20701;-67
2022/06/05 03:38:13;;;;;;;0.85;0.43;;;17.60;99.90;;;;;;4974409;28;20039;-67
2022/06/05 03:40:41;;;;;;;0.93;0.28;;;17.50;99.90;;;;;;4974360;28;20045;-67
2022/06/05 03:43:07;;;;;;;2.67;0.40;;;17.50;99.90;;;;;;4974294;28;20809;-67
2022/06/05 03:45:32;;;;;;;2.88;0.88;;;17.30;99.90;;;;;;4974061;28;20054;-67
2022/06/05 03:47:58;;;;;;;0.45;0.40;;;17.30;99.90;;;;;;4974004;28;20046;-67
2022/06/05 03:50:24;;;;;;;1.98;0.77;;;17.30;99.90;;;;;;4974144;28;20038;-67
2022/06/05 03:52:51;;;;;;;4.18;0.60;;;;;;;;;;4974007;28;20051;-67
2022/06/05 03:55:20;;;;;;;1.92;0.60;;;17.30;99.90;;;;;;4974065;28;20081;-67
2022/06/05 03:57:46;;;;;;;3.42;0.65;;;17.50;99.90;;;;;;4974188;28;20042;-67
2022/06/05 04:00:13;;;;;;;1.70;0.45;;;17.40;99.90;;;;;;4974151;28;20045;-67
2022/06/05 04:02:40;;;;;;;2.38;0.70;;;17.20;99.90;;;;;;4974113;28;20093;-67
2022/06/05 04:05:08;;;;;;;4.65;0.80;;;16.90;99.90;;;;;;4973956;28;20038;-67
2022/06/05 04:07:34;;;;;;;3.83;1.08;;;16.90;99.90;;;;;;4973819;28;20126;-66
2022/06/05 04:09:59;;;;;;;7.30;1.83;;;16.70;99.90;;;;;;4973764;28;20566;-67
2022/06/05 04:12:26;;;;;;;7.57;0.90;;;16.70;99.90;;;;;;4973645;28;20061;-67
2022/06/05 04:14:52;;;;;;;8.63;2.17;;;16.70;99.90;;;;;;4973940;28;20517;-67
2022/06/05 04:17:17;;;;;;;5.43;1.33;;;16.80;99.90;;;;;;4973908;28;20043;-67
2022/06/05 04:19:43;;;;;;;4.10;1.10;;;16.90;99.90;;;;;;4974846;28;20562;-67
2022/06/05 04:22:09;;;;;;;2.63;0.88;;;17.00;99.90;;;;;;4990093;28;20472;-67
2022/06/05 04:24:36;;;;;;;3.80;0.50;;;17.10;99.90;;;;;;4990975;28;20046;-67
2022/06/05 04:27:02;;;;;;;2.38;0.70;;;16.90;99.90;;;;;;4993209;28;20038;-67
2022/06/05 04:29:28;;;;;;;1.63;0.60;;;16.70;99.90;;;;;;4993271;28;20401;-67
2022/06/05 04:31:53;;;;;;;2.55;0.73;;;16.70;99.90;;;;;;4993221;28;20046;-67
2022/06/05 04:34:22;;;;;;;2.70;0.90;;;16.90;99.90;;;;;;4993272;28;20076;-67
2022/06/05 04:36:49;;;;;;;1.13;0.63;;;17.10;99.90;;;;;;4993020;28;20057;-67
2022/06/05 04:39:15;;;;;;;3.90;0.82;;;17.10;99.90;;;;;;4993245;28;20042;-67
2022/06/05 04:41:42;;;;;;;3.88;1.02;;;16.80;99.90;;;;;;4993173;28;20066;-67
2022/06/05 04:44:11;;;;;;;1.90;0.68;;;16.80;99.90;;;;;;4995745;28;20105;-67
2022/06/05 04:46:37;;;;;;;5.15;1.00;;;16.70;99.90;;;;;;4996704;28;20039;-67
2022/06/05 04:49:06;;;;;;;1.65;0.65;;;16.60;99.90;;;;;;4996895;28;20045;-67
2022/06/05 04:51:33;;;;;;;2.13;0.90;;;16.60;99.90;;;;;;4996440;28;20046;-67
2022/06/05 04:54:01;;;;;;;5.22;0.77;;;16.60;99.90;;;;;;4996536;28;20120;-67
2022/06/05 04:56:28;;;;;;;1.67;0.75;;;16.60;99.90;;;;;;4995084;28;20038;-67
2022/06/05 04:58:54;;;;;;;2.97;0.73;;;16.50;99.90;;;;;;4993066;28;20042;-67
2022/06/05 05:01:28;;;;;;;2.53;0.70;;;16.80;99.90;;;;;;4995732;28;20042;-67
2022/06/05 05:03:56;;;;;;;3.53;1.00;;;17.00;99.90;;;;;;4996067;28;20050;-67
2022/06/05 05:06:22;;;;;;;1.50;0.80;;;17.00;99.90;;;;;;4996331;28;20046;-67
2022/06/05 05:08:48;;;;;;;3.40;1.10;;;17.10;99.90;;;;;;4996282;28;20052;-67
2022/06/05 05:11:17;;;;;;;5.15;1.00;;;17.00;99.90;;;;;;4996231;28;20137;-67
2022/06/05 05:13:43;;;;;;;2.88;0.95;;;17.10;99.90;;;;;;4996280;28;20042;-67
2022/06/05 05:16:09;;;;;;;2.88;1.00;;;17.10;99.90;;;;;;4996213;28;20401;-67
2022/06/05 05:18:36;;;;;;;1.80;0.90;;;17.20;99.90;;;;;;4996140;28;20157;-67
2022/06/05 05:21:11;;;;;;;2.75;0.82;;;17.30;99.90;;;;;;4996128;28;20072;-67
2022/06/05 05:23:38;;;;;;;2.72;1.00;;;17.30;99.90;;;;;;4996157;28;20038;-67
2022/06/05 05:26:12;;;;;;;2.22;1.10;;;17.00;99.90;;;;;;4996117;28;20053;-67
2022/06/05 05:28:39;;;;;;;3.60;0.80;;;16.90;99.90;;;;;;4996002;28;20110;-67
2022/06/05 05:31:37;;;;;;;3.85;0.88;;;16.90;99.90;;;;;;4995741;28;20074;-67
2022/06/05 05:34:04;;;;;;;2.90;1.08;;;16.80;99.90;;;;;;4986924;28;20096;-67
2022/06/05 05:36:30;;;;;;;2.70;0.77;;;17.00;99.90;;;;;;4995213;28;20042;-68
2022/06/05 05:44:26;;;;;;;3.58;0.77;;;17.20;99.90;;;;;;4995145;28;20065;-68
2022/06/05 05:46:52;;;;;;;3.78;0.88;;;17.70;99.90;;;;;;4994657;28;20038;-69
2022/06/05 05:49:18;;;;;;;4.88;1.02;;;18.00;99.90;;;;;;4995282;28;20077;-68
2022/06/05 05:51:44;;;;;;;4.35;0.57;;;17.90;99.90;;;;;;4995278;28;20388;-68
2022/06/05 05:54:10;;;;;;;1.63;0.90;;;17.80;99.90;;;;;;4994854;28;20050;-68
2022/06/05 05:56:37;;;;;;;1.52;0.80;;;17.80;99.90;;;;;;4995148;28;20540;-68
2022/06/05 05:59:04;;;;;;;9.25;1.00;;;17.80;99.90;;;;;;4994895;28;20043;-68
2022/06/05 06:01:30;;;;;;;3.35;0.75;;;17.80;99.90;;;;;;4995368;28;20121;-68
2022/06/05 06:03:59;;;;;;;4.00;1.30;;;17.60;99.90;;;;;;4995441;28;20042;-67
2022/06/05 06:06:28;;;;;;;3.92;0.70;;;17.40;99.90;;;;;;4995098;28;20556;-68
2022/06/05 06:08:54;;;;;;;2.00;0.80;;;17.30;99.90;;;;;;4995175;28;20053;-68
2022/06/05 06:11:20;;;;;;;1.90;0.82;;;17.40;99.90;;;;;;4995123;28;20050;-67
2022/06/05 06:13:45;;;;;;;4.95;0.82;;;17.40;99.90;;;;;;4995240;28;20042;-67
2022/06/05 06:16:11;;;;;;;2.50;0.88;;;17.50;99.90;;;;;;4994715;28;20035;-68
2022/06/05 06:18:37;;;;;;;3.35;0.90;;;17.80;99.90;;;;;;4994900;28;20125;-68
2022/06/05 06:21:03;;;;;;;3.05;0.70;;;18.00;99.90;;;;;;4993304;28;20052;-68
2022/06/05 06:23:29;;;;;;;2.83;0.80;;;18.20;99.90;;;;;;4994619;28;20038;-68
2022/06/05 06:25:55;;;;;;;13.80;1.00;;;18.90;99.90;;;;;;4977383;28;20104;-67
2022/06/05 06:28:21;;;;;;;2.22;0.55;;;;;;;;;;4994179;28;20445;-68
2022/06/05 06:30:47;;;;;;;2.75;0.70;;;19.50;99.90;;;;;;4994706;28;20042;-67
2022/06/05 06:33:13;;;;;;;2.17;0.70;;;19.40;99.90;;;;;;4993403;28;20449;-68
2022/06/05 06:35:40;;;;;;;1.30;0.70;;;19.50;99.90;;;;;;4994228;28;20084;-68
2022/06/05 06:38:06;;;;;;;2.42;0.70;;;19.70;99.90;;;;;;4994362;28;20064;-67
2022/06/05 06:40:34;;;;;;;1.38;0.85;;;19.90;99.90;;;;;;4994481;28;20042;-67
2022/06/05 06:43:00;;;;;;;2.78;1.00;;;19.70;99.90;;;;;;4994536;28;20069;-68
2022/06/05 06:45:26;;;;;;;1.75;0.95;;;19.80;99.90;;;;;;4994439;28;20077;-67
2022/06/05 06:47:51;;;;;;;3.92;0.70;;;19.70;99.90;;;;;;4994339;28;20038;-68
2022/06/05 06:50:18;;;;;;;0.73;0.60;;;19.30;99.90;;;;;;4994229;28;20036;-68
2022/06/05 06:52:43;;;;;;;4.18;0.70;;;19.40;99.90;;;;;;4994279;28;20141;-68
2022/06/05 06:55:12;;;;;;;1.00;0.50;;;19.80;99.90;;;;;;4992235;28;20145;-68
2022/06/05 06:57:39;;;;;;;5.50;0.75;;;;;;;;;;4993847;28;20448;-68
2022/06/05 07:00:06;;;;;;;3.03;0.80;;;20.30;99.90;;;;;;4994244;28;20093;-68
2022/06/05 07:02:32;;;;;;;4.65;0.90;;;20.00;99.90;;;;;;4988421;28;20042;-67
2022/06/05 07:04:57;;;;;;;1.25;0.75;;;20.20;99.90;;;;;;4990187;28;20053;-67
2022/06/05 07:07:23;;;;;;;3.38;1.63;;;;;;;;;;4992212;28;20038;-66
2022/06/05 07:09:49;;;;;;;8.57;1.25;;;20.80;99.90;;;;;;4991776;28;20050;-66
2022/06/05 07:12:17;;;;;;;5.03;1.05;;;20.40;99.90;;;;;;4990373;28;20468;-66
2022/06/05 07:14:43;;;;;;;3.15;0.77;;;20.50;99.90;;;;;;4991955;28;20544;-66
2022/06/05 07:17:10;;;;;;;2.95;0.70;;;;;;;;;;4990960;28;20116;-67
2022/06/05 07:19:36;;;;;;;1.70;0.75;;;21.00;99.90;;;;;;4992860;28;20613;-66
2022/06/05 07:22:01;;;;;;;0.90;0.60;;;21.30;99.90;;;;;;4991716;28;20137;-66
2022/06/05 07:24:28;;;;;;;2.33;0.80;;;;;;;;;;4991715;28;20374;-67
2022/06/05 07:26:54;;;;;;;1.45;0.68;;;21.70;99.90;;;;;;4991188;28;20417;-67
2022/06/05 07:29:20;;;;;;;2.55;0.75;;;21.50;99.90;;;;;;4990698;28;20038;-66
2022/06/05 07:31:46;;;;;;;0.85;0.57;;;21.50;99.90;;;;;;4990621;28;20102;-67
2022/06/05 07:34:12;;;;;;;1.88;0.80;;;21.70;99.90;;;;;;4990188;28;20120;-67
2022/06/05 07:36:38;;;;;;;1.30;0.68;;;22.10;99.90;;;;;;4991387;28;20053;-67
2022/06/05 07:39:04;;;;;;;2.05;0.70;;;22.30;99.90;;;;;;4973635;28;20441;-67
2022/06/05 07:41:33;;;;;;;1.65;0.70;;;22.00;99.90;;;;;;4991667;28;20034;-67
2022/06/05 07:44:00;;;;;;;1.63;0.73;;;21.90;99.90;;;;;;4991462;28;20073;-67
2022/06/05 07:46:26;;;;;;;2.15;0.82;;;22.10;99.90;;;;;;4990620;28;20521;-67
2022/06/05 07:48:52;;;;;;;0.73;0.50;;;22.40;99.90;;;;;;4991742;28;20053;-67
2022/06/05 07:56:51;;;;;;;5.80;1.02;;;;;;;;;;4991415;28;20063;-68
2022/06/05 07:59:16;;;;;;;1.17;0.88;;;23.00;99.90;;;;;;4991130;28;20046;-67
2022/06/05 08:01:42;;;;;;;4.00;0.70;;;22.30;99.90;;;;;;4990751;28;20047;-67
2022/06/05 08:04:08;;;;;;;2.58;0.60;;;22.60;99.90;;;;;;4991203;28;20483;-67
2022/06/05 08:06:34;;;;;;;2.58;0.80;;;22.40;99.90;;;;;;4991439;28;20046;-67
2022/06/05 08:09:02;;;;;;;0.90;0.57;;;23.40;99.90;;;;;;4991233;28;20121;-67
2022/06/05 08:11:28;;;;;;;4.10;0.80;;;23.10;99.90;;;;;;4991234;28;20054;-68
2022/06/05 08:13:54;;;;;;;0.93;0.70;;;23.40;99.90;;;;;;4990843;28;20040;-67
2022/06/05 08:16:20;;;;;;;2.08;0.80;;;23.70;99.90;;;;;;4990468;28;20135;-67
2022/06/05 08:18:45;;;;;;;2.33;0.80;;;23.80;99.90;;;;;;4993617;28;20089;-67
2022/06/05 08:21:11;;;;;;;4.75;1.00;;;23.40;99.90;;;;;;4994960;28;20490;-67
2022/06/05 08:23:38;;;;;;;2.92;1.00;;;;;;;;;;4995249;28;20038;-67
2022/06/05 08:26:03;;;;;;;3.05;0.90;;;24.00;99.90;;;;;;4994990;28;20502;-67
2022/06/05 08:28:30;;;;;;;2.22;0.85;;;23.70;99.90;;;;;;4994760;28;20042;-67
2022/06/05 08:30:56;;;;;;;1.63;0.90;;;;;;;;;;4993681;28;20180;-67
2022/06/05 08:33:23;;;;;;;1.27;0.75;;;24.40;99.90;;;;;;4993882;28;20050;-68
2022/06/05 08:35:49;;;;;;;3.67;0.88;;;23.10;99.90;;;;;;4994748;28;20073;-65
2022/06/05 08:41:28;;;;;;;2.17;0.90;;;;;;;;;;4994353;28;20045;-65
2022/06/05 08:44:02;;;;;;;3.97;1.08;;;;;;;;;;4994572;28;20042;-67
2022/06/05 08:46:43;;;;;;;5.65;1.00;;;;;;;;;;4995352;28;20125;-67
2022/06/05 08:49:11;;;;;;;1.75;0.90;;;;;;;;;;4996404;28;20116;-66
2022/06/05 08:52:05;;;;;;;2.55;1.20;;;24.60;99.90;;;;;;4995858;28;20050;-67
2022/06/05 08:54:36;;;;;;;2.38;0.95;;;24.30;99.90;;;;;;4994948;28;20046;-67
2022/06/05 08:57:05;;;;;;;2.80;0.77;;;;;;;;;;4994161;28;20042;-68
2022/06/05 09:00:17;;;;;;;5.15;0.85;;;24.10;99.90;;;;;;4994012;28;20050;-67
2022/06/05 09:02:48;;;;;;;2.75;1.00;;;24.50;99.90;;;;;;4993537;28;20494;-67
2022/06/05 09:05:24;;;;;;;4.68;1.25;;;25.20;99.90;;;;;;4996025;28;20046;-67
2022/06/05 09:07:56;;;;;;;2.20;1.40;;;24.80;99.90;;;;;;4994430;28;20501;-67
2022/06/05 09:10:31;;;;;;;2.83;0.90;;;25.40;99.90;;;;;;4994979;28;20046;-67
2022/06/05 09:13:00;;;;;;;4.30;1.30;;;25.70;99.90;;;;;;4995923;28;20046;-67
2022/06/05 09:15:35;;;;;;;14.10;1.20;;;25.70;99.90;;;;;;4993845;28;20065;-67
2022/06/05 09:18:02;;;;;;;4.78;1.08;;;;;;;;;;4993959;28;20129;-67
2022/06/05 09:20:48;;;;;;;2.70;1.13;;;;;;;;;;4993999;28;20050;-67
2022/06/05 09:23:19;;;;;;;2.20;1.02;;;;;;;;;;4987111;28;20443;-67
2022/06/05 09:26:24;;;;;;;2.45;0.75;;;26.20;99.90;;;;;;4984787;28;20562;-67
2022/06/05 09:29:19;;;;;;;1.65;0.80;;;26.40;99.90;;;;;;4960214;28;20030;-67
2022/06/05 09:32:03;;;;;;;1.15;0.65;;;26.20;99.90;;;;;;4981990;28;20061;-67
2022/06/05 09:34:35;;;;;;;2.35;0.90;;;25.90;99.90;;;;;;4991758;28;20042;-67
2022/06/05 09:37:26;;;;;;;2.60;1.00;;;25.20;99.90;;;;;;4992226;28;20046;-67
2022/06/05 09:40:17;;;;;;;4.10;0.75;;;25.20;99.90;;;;;;4985380;28;20038;-67
2022/06/05 09:42:45;;;;;;;6.50;0.90;;;25.70;99.90;;;;;;4992042;28;20043;-67
2022/06/05 09:45:43;;;;;;;7.07;0.98;;;26.10;99.90;;;;;;4994097;28;20046;-67
2022/06/05 09:48:26;;;;;;;2.22;0.75;;;26.40;99.90;;;;;;4994545;28;20122;-67
2022/06/05 09:50:52;;;;;;;3.25;1.10;;;26.20;99.90;;;;;;4993631;28;20132;-67
2022/06/05 09:53:29;;;;;;;4.53;1.02;;;25.70;99.90;;;;;;4993290;28;20077;-66
2022/06/05 09:56:11;;;;;;;3.50;0.93;;;24.70;99.90;;;;;;4981419;28;20042;-67
2022/06/05 09:58:51;;;;;;;3.40;1.10;;;24.70;99.90;;;;;;4973725;28;20138;-66
2022/06/05 10:01:28;;;;;;;1.17;0.95;;;25.60;99.90;;;;;;4982846;28;20047;-66
2022/06/05 10:03:59;;;;;;;2.03;0.85;;;26.30;99.90;;;;;;4981629;28;20513;-66
2022/06/05 10:06:35;;;;;;;2.65;0.82;;;25.90;99.90;;;;;;4982170;28;20046;-66
2022/06/05 10:09:11;;;;;;;0.80;0.60;;;26.30;99.90;;;;;;4990381;28;20053;-66
2022/06/05 10:11:52;;;;;;;1.48;1.17;;;26.30;99.90;;;;;;4989516;28;20054;-67
2022/06/05 10:14:26;;;;;;;2.90;0.80;;;26.50;99.90;;;;;;4992287;28;20046;-67
2022/06/05 10:17:23;;;;;;;2.63;0.80;;;26.50;99.90;;;;;;4992735;28;20050;-66
2022/06/05 10:20:05;;;;;;;10.00;1.30;;;26.40;99.90;;;;;;4993062;28;20038;-67
2022/06/05 10:22:36;;;;;;;3.20;0.80;;;26.20;99.90;;;;;;4994464;28;20056;-66
2022/06/05 10:25:34;;;;;;;1.75;0.65;;;25.60;99.90;;;;;;4994614;28;20034;-66
2022/06/05 10:28:26;;;;;;;1.70;0.70;;;25.60;99.90;;;;;;4992697;28;20038;-66
2022/06/05 10:31:23;;;;;;;4.07;0.80;;;26.00;99.10;;;;;;4992004;28;20053;-66
2022/06/05 10:33:54;;;;;;;1.42;0.80;;;26.50;99.90;;;;;;4992248;28;20097;-66
2022/06/05 10:36:28;;;;;;;0.82;0.52;;;26.30;99.00;;;;;;4992667;28;20073;-67
2022/06/05 10:39:04;;;;;;;4.70;1.60;;;26.20;98.60;;;;;;4992395;28;20060;-66
2022/06/05 10:42:00;;;;;;;12.30;1.30;;;26.70;99.20;;;;;;4991711;28;20568;-66
2022/06/05 10:45:02;;;;;;;4.03;0.73;;;26.90;99.80;;;;;;4993928;28;20512;-67
2022/06/05 10:47:53;;;;;;;1.70;0.57;;;26.80;98.70;;;;;;4994097;28;20504;-66
2022/06/05 10:50:52;;;;;;;1.88;0.70;;;26.90;97.50;;;;;;4988967;28;20045;-66
2022/06/05 10:53:26;;;;;;;2.63;0.60;;;26.30;97.90;;;;;;4983350;28;20590;-66
2022/06/05 10:56:01;;;;;;;4.30;0.70;;;26.80;99.10;;;;;;4991084;28;20465;-66
2022/06/05 10:58:32;;;;;;;2.10;0.75;;;27.00;98.50;;;;;;4980770;28;20053;-66
2022/06/05 11:01:35;;;;;;;0.95;0.70;;;27.20;98.10;;;;;;4971625;28;20494;-66
2022/06/05 11:04:24;;;;;;;7.15;1.00;;;27.20;96.70;;;;;;4972495;28;20070;-66
2022/06/05 11:07:12;;;;;;;4.03;0.90;;;27.50;99.00;;;;;;4976459;28;20569;-66
2022/06/05 11:09:46;;;;;;;1.25;0.60;;;27.30;97.30;;;;;;4991719;28;20494;-67
2022/06/05 11:15:24;;;;;;;2.22;1.00;;;27.70;98.00;;;;;;4971446;28;20453;-67
2022/06/05 11:18:28;;;;;;;2.55;1.15;;;27.50;97.20;;;;;;4983611;28;20524;-68
2022/06/05 11:21:01;;;;;;;3.22;1.02;;;27.00;97.90;;;;;;4979141;28;20045;-66
2022/06/05 11:23:33;;;;;;;2.35;1.25;;;26.40;98.20;;;;;;4977405;28;20050;-66
2022/06/05 11:26:23;;;;;;;5.57;1.23;;;26.10;98.80;;;;;;4975065;28;20045;-66
2022/06/05 11:29:12;;;;;;;0.80;0.70;;;26.10;99.00;;;;;;4977025;28;20045;-66
2022/06/05 11:31:50;;;;;;;3.30;0.70;;;26.60;99.00;;;;;;4991001;28;20506;-68
2022/06/05 11:34:35;;;;;;;1.38;0.98;;;26.80;98.80;;;;;;4992146;28;20093;-67
2022/06/05 11:37:39;;;;;;;1.48;0.85;;;26.70;97.50;;;;;;4986445;28;20514;-65
2022/06/05 11:40:26;;;;;;;1.33;0.77;;;27.00;98.90;;;;;;4983953;28;20038;-68
2022/06/05 11:43:28;;;;;;;7.53;0.90;;;27.00;98.10;;;;;;4988900;28;20046;-65
2022/06/05 11:46:01;;;;;;;2.40;0.93;;;26.50;97.30;;;;;;4990540;28;20034;-66
2022/06/05 11:48:54;;;;;;;2.97;0.80;;;26.30;99.60;;;;;;4991671;28;20054;-66
2022/06/05 11:51:30;;;;;;;6.07;1.00;;;26.30;99.00;;;;;;4991448;28;20046;-67
2022/06/05 11:54:17;;;;;;;4.00;0.80;;;26.30;97.90;;;;;;4993483;28;20662;-67
2022/06/05 11:56:46;;;;;;;1.30;0.88;;;26.30;98.30;;;;;;4993211;28;20038;-66
2022/06/05 11:59:44;;;;;;;3.10;1.98;;;26.80;98.90;;;;;;4995018;28;20042;-66
2022/06/05 12:02:27;;;;;;;5.68;1.27;;;27.20;99.70;;;;;;4997211;28;20050;-67
2022/06/05 12:05:14;;;;;;;1.75;0.88;;;27.10;97.90;;;;;;4994923;28;20092;-67
2022/06/05 12:07:41;;;;;;;2.67;0.70;;;27.20;97.50;;;;;;4997117;28;20077;-67
2022/06/05 12:10:24;;;;;;;4.93;1.00;;;26.40;96.60;;;;;;4996731;28;20054;-66
2022/06/05 12:13:34;;;;;;;2.85;0.73;;;26.90;98.30;;;;;;4996834;28;20054;-67
2022/06/05 12:16:21;;;;;;;2.53;0.50;;;27.00;98.20;;;;;;4976160;28;20046;-66
2022/06/05 12:18:54;;;;;;;2.55;0.90;;;26.70;95.70;;;;;;4982019;28;20133;-66
2022/06/05 12:21:26;;;;;;;4.43;0.88;;;27.30;97.10;;;;;;4995622;28;20045;-67
2022/06/05 12:23:58;;;;;;;2.53;0.70;;;27.30;95.90;;;;;;4995017;28;20539;-65
2022/06/05 12:26:43;;;;;;;2.00;0.82;;;27.20;95.60;;;;;;4996084;28;20034;-66
2022/06/05 12:29:44;;;;;;;3.92;0.77;;;27.40;97.00;;;;;;4995272;28;20048;-66
2022/06/05 12:32:32;;;;;;;1.52;0.80;;;27.40;96.40;;;;;;4993750;28;20057;-66
2022/06/05 12:35:13;;;;;;;1.77;1.00;;;26.30;95.10;;;;;;4994482;28;20133;-66
2022/06/05 12:37:45;;;;;;;3.97;0.80;;;26.40;96.80;;;;;;4994689;28;20501;-66
2022/06/05 12:40:23;;;;;;;3.10;0.93;;;26.30;96.90;;;;;;4994701;28;20043;-67
2022/06/05 12:43:07;;;;;;;1.27;0.70;;;26.40;94.90;;;;;;4994375;28;20042;-66
2022/06/05 12:45:38;;;;;;;0.65;0.60;;;26.20;93.00;;;;;;4994946;28;20121;-65
2022/06/05 12:48:10;;;;;;;1.73;0.73;;;26.60;93.80;;;;;;4994302;28;20042;-65
2022/06/05 12:50:51;;;;;;;0.80;0.43;;;26.50;93.90;;;;;;4994790;28;20092;-65
2022/06/05 12:53:33;;;;;;;2.08;0.52;;;26.10;94.10;;;;;;4994898;28;20108;-65
2022/06/05 12:56:34;;;;;;;1.45;0.57;;;25.90;93.10;;;;;;4994534;28;20608;-66
2022/06/05 12:59:30;;;;;;;0.50;0.50;;;26.30;93.10;;;;;;4977890;28;20049;-66
2022/06/05 13:02:01;;;;;;;1.02;0.60;;;26.30;93.00;;;;;;4974253;28;20046;-66
2022/06/05 13:04:41;;;;;;;2.65;0.90;;;26.80;93.30;;;;;;4974661;28;20182;-67
2022/06/05 13:07:27;;;;;;;;;;;26.70;93.50;;;;;;4975531;28;20125;-66
2022/06/05 13:10:27;;;;;;;3.13;0.80;;;26.40;94.80;;;;;;4975482;28;19997;-66
2022/06/05 13:13:08;;;;;;;4.53;0.70;;;26.30;95.80;;;;;;4971922;28;20050;-66
2022/06/05 13:15:47;;;;;;;2.38;1.02;;;26.80;96.40;;;;;;4980301;28;20089;-67
2022/06/05 13:18:46;;;;;;;2.90;0.60;;;26.00;96.80;;;;;;4974935;28;20049;-67
2022/06/05 13:21:28;;;;;;;2.10;1.00;;;26.70;95.60;;;;;;4923439;28;20047;-67
2022/06/05 13:24:19;;;;;;;0.77;0.50;;;26.20;93.70;;;;;;4974926;28;20042;-67
2022/06/05 13:27:00;;;;;;;4.03;0.80;;;26.30;94.50;;;;;;4974754;28;20078;-66
2022/06/05 13:30:07;;;;;;;1.75;0.95;;;26.50;95.20;;;;;;4974532;28;20474;-67
2022/06/05 13:32:46;;;;;;;3.55;0.85;;;26.30;94.30;;;;;;4974117;28;20113;-67
2022/06/05 13:36:07;;;;;;;2.90;1.10;;;26.40;96.40;;;;;;4975764;28;20038;-67
2022/06/05 13:39:11;;;;;;;4.68;0.90;;;26.90;97.00;;;;;;4951586;28;20043;-66
2022/06/05 13:42:18;;;;;;;2.42;1.00;;;26.80;95.10;;;;;;4974445;28;20062;-66
2022/06/05 13:44:53;;;;;;;56.35;5.78;;;26.40;94.30;;;;;;4966151;28;20678;-66
2022/06/05 13:47:30;;;;;;;5.50;1.08;;;26.40;94.60;;;;;;4973430;28;20121;-67
2022/06/05 13:50:15;;;;;;;2.33;0.90;;;26.20;93.30;;;;;;4974382;28;20457;-66
2022/06/05 13:52:48;;;;;;;1.35;0.82;;;26.00;93.70;;;;;;4974578;28;20053;-66